sensor_id;sensor_type;location;lat;lon;timestamp;pressure;altitude;pressure_sealevel;temperature;humidity
49943;BME280;36011;53.362;58.948;2024-02-21T00:02:28;98230.41;;;-20.67;44.57
49943;BME280;36011;53.362;58.948;2024-02-21T00:05:32;98232.13;;;-20.66;44.15
49943;BME280;36011;53.362;58.948;2024-02-21T00:08:35;98230.38;;;-20.57;44.63
49943;BME280;36011;53.362;58.948;2024-02-21T00:11:37;98224.81;;;-20.53;44.03
49943;BME280;36011;53.362;58.948;2024-02-21T00:14:39;98227.75;;;-20.47;44.26
49943;BME280;36011;53.362;58.948;2024-02-21T00:17:44;98228.34;;;-20.39;44.25
49943;BME280;36011;53.362;58.948;2024-02-21T00:20:48;98212.00;;;-20.46;43.51
49943;BME280;36011;53.362;58.948;2024-02-21T00:23:49;98222.97;;;-20.44;43.76
49943;BME280;36011;53.362;58.948;2024-02-21T00:26:54;98216.78;;;-20.49;43.84
49943;BME280;36011;53.362;58.948;2024-02-21T00:29:58;98218.75;;;-20.45;43.91
49943;BME280;36011;53.362;58.948;2024-02-21T00:33:02;98220.03;;;-20.50;43.98
49943;BME280;36011;53.362;58.948;2024-02-21T00:36:04;98200.44;;;-20.55;44.24
49943;BME280;36011;53.362;58.948;2024-02-21T00:39:05;98205.22;;;-20.47;43.64
49943;BME280;36011;53.362;58.948;2024-02-21T00:42:09;98208.97;;;-20.42;44.13
49943;BME280;36011;53.362;58.948;2024-02-21T00:45:14;98217.47;;;-20.40;43.80
49943;BME280;36011;53.362;58.948;2024-02-21T00:48:21;98207.88;;;-20.45;44.21
49943;BME280;36011;53.362;58.948;2024-02-21T00:51:25;98213.28;;;-20.51;43.90
49943;BME280;36011;53.362;58.948;2024-02-21T00:54:34;98214.34;;;-20.59;44.45
49943;BME280;36011;53.362;58.948;2024-02-21T00:57:38;98213.88;;;-20.65;44.18
49943;BME280;36011;53.362;58.948;2024-02-21T01:00:42;98204.53;;;-20.68;45.42
49943;BME280;36011;53.362;58.948;2024-02-21T01:03:47;98201.94;;;-20.79;45.20
49943;BME280;36011;53.362;58.948;2024-02-21T01:06:51;98210.56;;;-20.76;45.09
49943;BME280;36011;53.362;58.948;2024-02-21T01:09:55;98209.69;;;-20.76;45.18
49943;BME280;36011;53.362;58.948;2024-02-21T01:12:57;98204.22;;;-20.82;45.12
49943;BME280;36011;53.362;58.948;2024-02-21T01:16:01;98202.00;;;-20.90;45.42
49943;BME280;36011;53.362;58.948;2024-02-21T01:19:05;98180.06;;;-21.14;45.60
49943;BME280;36011;53.362;58.948;2024-02-21T01:22:09;98195.56;;;-21.08;46.19
49943;BME280;36011;53.362;58.948;2024-02-21T01:25:13;98214.41;;;-21.01;46.26
49943;BME280;36011;53.362;58.948;2024-02-21T01:28:14;98205.81;;;-21.05;46.14
49943;BME280;36011;53.362;58.948;2024-02-21T01:31:18;98210.34;;;-21.11;46.91
49943;BME280;36011;53.362;58.948;2024-02-21T01:34:22;98217.56;;;-21.14;46.93
49943;BME280;36011;53.362;58.948;2024-02-21T01:37:26;98218.09;;;-21.18;46.41
49943;BME280;36011;53.362;58.948;2024-02-21T01:40:34;98216.84;;;-21.23;46.91
49943;BME280;36011;53.362;58.948;2024-02-21T01:43:38;98210.13;;;-21.24;46.38
49943;BME280;36011;53.362;58.948;2024-02-21T01:46:40;98182.97;;;-21.42;47.16
49943;BME280;36011;53.362;58.948;2024-02-21T01:49:44;98209.13;;;-21.26;46.31
49943;BME280;36011;53.362;58.948;2024-02-21T01:52:48;98202.16;;;-21.31;46.80
49943;BME280;36011;53.362;58.948;2024-02-21T01:55:53;98200.69;;;-21.39;46.34
49943;BME280;36011;53.362;58.948;2024-02-21T01:58:55;98211.41;;;-21.40;46.13
49943;BME280;36011;53.362;58.948;2024-02-21T02:02:00;98201.72;;;-21.47;46.87
49943;BME280;36011;53.362;58.948;2024-02-21T02:05:05;98197.59;;;-21.57;46.65
49943;BME280;36011;53.362;58.948;2024-02-21T02:08:07;98197.50;;;-21.68;46.33
49943;BME280;36011;53.362;58.948;2024-02-21T02:11:12;98198.50;;;-21.77;46.60
49943;BME280;36011;53.362;58.948;2024-02-21T02:14:21;98180.19;;;-21.87;46.97
49943;BME280;36011;53.362;58.948;2024-02-21T02:17:23;98190.78;;;-21.90;46.88
49943;BME280;36011;53.362;58.948;2024-02-21T02:20:31;98188.41;;;-21.88;47.19
49943;BME280;36011;53.362;58.948;2024-02-21T02:23:33;98194.25;;;-21.88;47.32
49943;BME280;36011;53.362;58.948;2024-02-21T02:26:42;98196.03;;;-21.87;47.71
49943;BME280;36011;53.362;58.948;2024-02-21T02:29:53;98186.41;;;-21.92;47.68
49943;BME280;36011;53.362;58.948;2024-02-21T02:32:58;98181.41;;;-22.03;47.13
49943;BME280;36011;53.362;58.948;2024-02-21T02:36:02;98179.28;;;-22.08;47.42
49943;BME280;36011;53.362;58.948;2024-02-21T02:39:06;98186.53;;;-22.11;47.56
49943;BME280;36011;53.362;58.948;2024-02-21T02:42:07;98198.00;;;-22.13;47.63
49943;BME280;36011;53.362;58.948;2024-02-21T02:45:14;98189.44;;;-22.17;47.28
49943;BME280;36011;53.362;58.948;2024-02-21T02:48:16;98182.84;;;-22.27;47.24
49943;BME280;36011;53.362;58.948;2024-02-21T02:51:19;98197.03;;;-22.36;47.43
49943;BME280;36011;53.362;58.948;2024-02-21T02:54:20;98196.03;;;-22.48;47.30
49943;BME280;36011;53.362;58.948;2024-02-21T02:57:25;98196.38;;;-22.54;47.39
49943;BME280;36011;53.362;58.948;2024-02-21T03:00:26;98188.25;;;-22.61;47.46
49943;BME280;36011;53.362;58.948;2024-02-21T03:03:28;98199.25;;;-22.59;47.67
49943;BME280;36011;53.362;58.948;2024-02-21T03:06:30;98204.22;;;-22.59;47.70
49943;BME280;36011;53.362;58.948;2024-02-21T03:09:34;98211.34;;;-22.64;47.22
49943;BME280;36011;53.362;58.948;2024-02-21T03:12:40;98200.97;;;-22.69;47.50
49943;BME280;36011;53.362;58.948;2024-02-21T03:15:47;98201.94;;;-22.77;47.20
49943;BME280;36011;53.362;58.948;2024-02-21T03:18:50;98211.66;;;-22.80;47.38
49943;BME280;36011;53.362;58.948;2024-02-21T03:21:55;98202.91;;;-22.85;47.58
49943;BME280;36011;53.362;58.948;2024-02-21T03:24:59;98217.25;;;-22.82;47.31
49943;BME280;36011;53.362;58.948;2024-02-21T03:28:02;98174.09;;;-23.02;47.22
49943;BME280;36011;53.362;58.948;2024-02-21T03:31:11;98215.16;;;-22.78;47.01
49943;BME280;36011;53.362;58.948;2024-02-21T03:34:14;98209.03;;;-22.81;47.46
49943;BME280;36011;53.362;58.948;2024-02-21T03:37:22;98211.91;;;-22.77;47.29
49943;BME280;36011;53.362;58.948;2024-02-21T03:40:29;98217.41;;;-22.71;47.22
49943;BME280;36011;53.362;58.948;2024-02-21T03:43:41;98217.06;;;-22.65;47.40
49943;BME280;36011;53.362;58.948;2024-02-21T03:46:48;98210.47;;;-22.54;47.57
49943;BME280;36011;53.362;58.948;2024-02-21T03:49:52;98221.09;;;-22.36;47.17
49943;BME280;36011;53.362;58.948;2024-02-21T03:52:53;98210.75;;;-22.31;47.00
49943;BME280;36011;53.362;58.948;2024-02-21T03:56:00;98211.00;;;-22.28;46.65
49943;BME280;36011;53.362;58.948;2024-02-21T03:59:04;98196.03;;;-22.28;46.72
49943;BME280;36011;53.362;58.948;2024-02-21T04:02:06;98208.75;;;-22.14;46.63
49943;BME280;36011;53.362;58.948;2024-02-21T04:05:15;98209.50;;;-22.05;46.68
49943;BME280;36011;53.362;58.948;2024-02-21T04:08:20;98216.50;;;-22.01;46.17
49943;BME280;36011;53.362;58.948;2024-02-21T04:11:21;98208.00;;;-22.03;46.59
49943;BME280;36011;53.362;58.948;2024-02-21T04:14:27;98204.53;;;-21.85;46.24
49943;BME280;36011;53.362;58.948;2024-02-21T04:17:28;98215.50;;;-21.72;45.97
49943;BME280;36011;53.362;58.948;2024-02-21T04:20:29;98205.59;;;-21.61;45.62
49943;BME280;36011;53.362;58.948;2024-02-21T04:23:33;98208.91;;;-21.40;45.79
49943;BME280;36011;53.362;58.948;2024-02-21T04:26:37;98206.59;;;-21.16;45.67
49943;BME280;36011;53.362;58.948;2024-02-21T04:29:39;98204.00;;;-20.86;45.04
49943;BME280;36011;53.362;58.948;2024-02-21T04:32:40;98198.06;;;-20.54;45.38
49943;BME280;36011;53.362;58.948;2024-02-21T04:35:44;98200.13;;;-20.26;45.41
49943;BME280;36011;53.362;58.948;2024-02-21T04:38:45;98201.28;;;-19.99;44.73
49943;BME280;36011;53.362;58.948;2024-02-21T04:41:46;98194.16;;;-19.71;44.66
49943;BME280;36011;53.362;58.948;2024-02-21T04:44:51;98192.84;;;-19.42;44.48
49943;BME280;36011;53.362;58.948;2024-02-21T04:47:52;98203.34;;;-19.13;44.29
49943;BME280;36011;53.362;58.948;2024-02-21T04:50:58;98196.00;;;-18.86;44.15
49943;BME280;36011;53.362;58.948;2024-02-21T04:54:02;98190.78;;;-18.52;43.21
49943;BME280;36011;53.362;58.948;2024-02-21T04:57:07;98178.31;;;-18.26;43.01
49943;BME280;36011;53.362;58.948;2024-02-21T05:00:11;98189.69;;;-17.94;43.11
49943;BME280;36011;53.362;58.948;2024-02-21T05:03:15;98187.56;;;-17.75;42.81
49943;BME280;36011;53.362;58.948;2024-02-21T05:06:21;98203.56;;;-17.48;42.89
49943;BME280;36011;53.362;58.948;2024-02-21T05:09:25;98191.91;;;-17.21;42.59
49943;BME280;36011;53.362;58.948;2024-02-21T05:12:26;98197.72;;;-16.95;42.38
49943;BME280;36011;53.362;58.948;2024-02-21T05:15:27;98201.78;;;-16.84;42.30
49943;BME280;36011;53.362;58.948;2024-02-21T05:18:29;98202.16;;;-16.78;42.25
49943;BME280;36011;53.362;58.948;2024-02-21T05:21:32;98188.47;;;-16.81;42.51
49943;BME280;36011;53.362;58.948;2024-02-21T05:24:38;98193.28;;;-16.71;42.58
49943;BME280;36011;53.362;58.948;2024-02-21T05:27:40;98203.81;;;-16.50;42.49
49943;BME280;36011;53.362;58.948;2024-02-21T05:30:45;98200.50;;;-16.36;42.31
49943;BME280;36011;53.362;58.948;2024-02-21T05:33:50;98212.28;;;-16.21;42.25
49943;BME280;36011;53.362;58.948;2024-02-21T05:36:52;98203.91;;;-16.07;42.21
49943;BME280;36011;53.362;58.948;2024-02-21T05:39:59;98201.59;;;-15.89;42.20
49943;BME280;36011;53.362;58.948;2024-02-21T05:43:02;98204.06;;;-15.17;41.92
49943;BME280;36011;53.362;58.948;2024-02-21T05:46:04;98210.09;;;-10.72;37.99
49943;BME280;36011;53.362;58.948;2024-02-21T05:49:10;98193.84;;;-5.57;32.15
49943;BME280;36011;53.362;58.948;2024-02-21T05:52:12;98195.25;;;-1.54;28.17
49943;BME280;36011;53.362;58.948;2024-02-21T05:55:18;98183.66;;;1.32;25.87
49943;BME280;36011;53.362;58.948;2024-02-21T05:58:20;98179.03;;;3.77;23.73
49943;BME280;36011;53.362;58.948;2024-02-21T06:01:28;98195.69;;;6.15;20.78
49943;BME280;36011;53.362;58.948;2024-02-21T06:04:36;98187.34;;;7.54;20.36
49943;BME280;36011;53.362;58.948;2024-02-21T06:07:40;98185.66;;;8.81;20.03
49943;BME280;36011;53.362;58.948;2024-02-21T06:10:47;98183.94;;;9.71;18.88
49943;BME280;36011;53.362;58.948;2024-02-21T06:13:51;98191.06;;;10.32;18.67
49943;BME280;36011;53.362;58.948;2024-02-21T06:16:53;98185.47;;;10.60;18.12
49943;BME280;36011;53.362;58.948;2024-02-21T06:19:59;98177.31;;;10.66;17.31
49943;BME280;36011;53.362;58.948;2024-02-21T06:23:06;98179.00;;;10.06;16.66
49943;BME280;36011;53.362;58.948;2024-02-21T06:26:13;98174.84;;;9.58;17.10
49943;BME280;36011;53.362;58.948;2024-02-21T06:29:19;98175.34;;;9.22;16.54
49943;BME280;36011;53.362;58.948;2024-02-21T06:32:26;98178.19;;;9.17;16.95
49943;BME280;36011;53.362;58.948;2024-02-21T06:35:27;98171.84;;;9.23;16.39
49943;BME280;36011;53.362;58.948;2024-02-21T06:38:31;98185.00;;;9.87;15.98
49943;BME280;36011;53.362;58.948;2024-02-21T06:41:34;98168.59;;;10.85;15.50
49943;BME280;36011;53.362;58.948;2024-02-21T06:44:36;98180.44;;;12.23;15.06
49943;BME280;36011;53.362;58.948;2024-02-21T06:47:44;98181.84;;;13.14;14.24
49943;BME280;36011;53.362;58.948;2024-02-21T06:50:48;98180.69;;;13.67;13.90
49943;BME280;36011;53.362;58.948;2024-02-21T06:53:58;98177.41;;;13.93;13.45
49943;BME280;36011;53.362;58.948;2024-02-21T06:57:02;98180.72;;;14.13;13.25
49943;BME280;36011;53.362;58.948;2024-02-21T07:00:06;98179.53;;;14.77;12.88
49943;BME280;36011;53.362;58.948;2024-02-21T07:03:11;98184.41;;;15.69;12.23
49943;BME280;36011;53.362;58.948;2024-02-21T07:06:19;98185.03;;;16.40;11.64
49943;BME280;36011;53.362;58.948;2024-02-21T07:09:26;98177.84;;;17.06;11.53
49943;BME280;36011;53.362;58.948;2024-02-21T07:12:34;98184.31;;;17.27;10.88
49943;BME280;36011;53.362;58.948;2024-02-21T07:15:38;98180.91;;;17.75;10.87
49943;BME280;36011;53.362;58.948;2024-02-21T07:18:43;98180.31;;;19.79;11.83
49943;BME280;36011;53.362;58.948;2024-02-21T07:21:47;98181.06;;;19.47;10.23
49943;BME280;36011;53.362;58.948;2024-02-21T07:24:52;98177.72;;;19.11;10.05
49943;BME280;36011;53.362;58.948;2024-02-21T07:27:56;98179.41;;;19.01;9.76
49943;BME280;36011;53.362;58.948;2024-02-21T07:31:01;98174.84;;;18.68;9.81
49943;BME280;36011;53.362;58.948;2024-02-21T07:34:10;98173.56;;;18.38;9.86
49943;BME280;36011;53.362;58.948;2024-02-21T07:37:14;98179.75;;;18.38;9.51
49943;BME280;36011;53.362;58.948;2024-02-21T07:40:18;98171.94;;;18.24;9.86
49943;BME280;36011;53.362;58.948;2024-02-21T07:43:24;98177.88;;;18.63;9.25
49943;BME280;36011;53.362;58.948;2024-02-21T07:46:31;98179.16;;;18.93;9.33
49943;BME280;36011;53.362;58.948;2024-02-21T07:49:46;98177.00;;;19.20;9.22
49943;BME280;36011;53.362;58.948;2024-02-21T07:52:55;98174.06;;;19.12;9.19
49943;BME280;36011;53.362;58.948;2024-02-21T07:56:01;98185.47;;;18.92;8.72
49943;BME280;36011;53.362;58.948;2024-02-21T07:59:03;98181.31;;;18.88;9.16
49943;BME280;36011;53.362;58.948;2024-02-21T08:02:13;98186.53;;;18.78;8.57
49943;BME280;36011;53.362;58.948;2024-02-21T08:05:20;98177.56;;;19.01;8.96
49943;BME280;36011;53.362;58.948;2024-02-21T08:08:24;98183.53;;;19.16;8.62
49943;BME280;36011;53.362;58.948;2024-02-21T08:11:30;98180.97;;;19.71;8.54
49943;BME280;36011;53.362;58.948;2024-02-21T08:14:38;98183.25;;;19.53;8.27
49943;BME280;36011;53.362;58.948;2024-02-21T08:17:44;98180.81;;;18.01;8.76
49943;BME280;36011;53.362;58.948;2024-02-21T08:20:48;98183.31;;;16.26;9.47
49943;BME280;36011;53.362;58.948;2024-02-21T08:23:52;98178.03;;;15.02;9.73
49943;BME280;36011;53.362;58.948;2024-02-21T08:27:00;98183.22;;;15.74;9.47
49943;BME280;36011;53.362;58.948;2024-02-21T08:30:04;98183.41;;;16.90;9.07
49943;BME280;36011;53.362;58.948;2024-02-21T08:33:14;98180.47;;;17.81;8.75
49943;BME280;36011;53.362;58.948;2024-02-21T08:36:19;98169.13;;;18.61;8.38
49943;BME280;36011;53.362;58.948;2024-02-21T08:39:24;98169.69;;;18.77;8.33
49943;BME280;36011;53.362;58.948;2024-02-21T08:42:31;98150.41;;;19.07;7.98
49943;BME280;36011;53.362;58.948;2024-02-21T08:45:34;98182.31;;;21.14;8.41
49943;BME280;36011;53.362;58.948;2024-02-21T08:48:35;98171.41;;;20.75;8.05
49943;BME280;36011;53.362;58.948;2024-02-21T08:51:39;98166.81;;;20.24;7.97
49943;BME280;36011;53.362;58.948;2024-02-21T08:54:43;98168.75;;;20.54;7.71
49943;BME280;36011;53.362;58.948;2024-02-21T08:57:50;98169.84;;;20.51;7.71
49943;BME280;36011;53.362;58.948;2024-02-21T09:00:57;98160.78;;;20.84;7.72
49943;BME280;36011;53.362;58.948;2024-02-21T09:04:04;98167.09;;;21.04;7.51
49943;BME280;36011;53.362;58.948;2024-02-21T09:07:13;98156.94;;;21.08;7.33
49943;BME280;36011;53.362;58.948;2024-02-21T09:10:22;98142.41;;;20.70;7.36
49943;BME280;36011;53.362;58.948;2024-02-21T09:13:28;98153.28;;;20.57;7.50
49943;BME280;36011;53.362;58.948;2024-02-21T09:16:34;98156.88;;;20.14;7.64
49943;BME280;36011;53.362;58.948;2024-02-21T09:19:40;98153.09;;;19.96;7.96
49943;BME280;36011;53.362;58.948;2024-02-21T09:22:47;98151.88;;;19.89;7.50
49943;BME280;36011;53.362;58.948;2024-02-21T09:25:53;98150.38;;;20.07;7.51
49943;BME280;36011;53.362;58.948;2024-02-21T09:28:59;98146.16;;;20.26;7.68
49943;BME280;36011;53.362;58.948;2024-02-21T09:32:04;98146.34;;;19.69;7.76
49943;BME280;36011;53.362;58.948;2024-02-21T09:35:06;98146.38;;;19.47;7.81
49943;BME280;36011;53.362;58.948;2024-02-21T09:38:11;98142.53;;;19.28;7.89
49943;BME280;36011;53.362;58.948;2024-02-21T09:41:25;98145.94;;;18.74;8.04
49943;BME280;36011;53.362;58.948;2024-02-21T09:44:37;98142.38;;;18.16;8.12
49943;BME280;36011;53.362;58.948;2024-02-21T09:47:58;98148.06;;;18.23;8.16
49943;BME280;36011;53.362;58.948;2024-02-21T09:51:04;98144.97;;;18.05;8.13
49943;BME280;36011;53.362;58.948;2024-02-21T09:54:11;98139.19;;;18.11;8.26
49943;BME280;36011;53.362;58.948;2024-02-21T09:57:17;98141.81;;;18.93;7.81
49943;BME280;36011;53.362;58.948;2024-02-21T10:00:21;98137.88;;;17.08;8.38
49943;BME280;36011;53.362;58.948;2024-02-21T10:03:27;98135.94;;;16.58;8.58
49943;BME280;36011;53.362;58.948;2024-02-21T10:06:34;98138.47;;;16.47;8.92
49943;BME280;36011;53.362;58.948;2024-02-21T10:09:40;98124.03;;;16.38;8.77
49943;BME280;36011;53.362;58.948;2024-02-21T10:12:50;98122.34;;;16.37;8.70
49943;BME280;36011;53.362;58.948;2024-02-21T10:16:17;98126.78;;;16.50;8.94
49943;BME280;36011;53.362;58.948;2024-02-21T10:19:24;98129.56;;;16.23;8.68
49943;BME280;36011;53.362;58.948;2024-02-21T10:22:27;98131.13;;;15.73;8.85
49943;BME280;36011;53.362;58.948;2024-02-21T10:25:37;98120.31;;;14.78;9.07
49943;BME280;36011;53.362;58.948;2024-02-21T10:28:52;98123.38;;;13.67;9.54
49943;BME280;36011;53.362;58.948;2024-02-21T10:32:10;98123.06;;;13.42;9.67
49943;BME280;36011;53.362;58.948;2024-02-21T10:35:25;98116.22;;;13.38;9.67
49943;BME280;36011;53.362;58.948;2024-02-21T10:38:30;98122.34;;;13.07;9.75
49943;BME280;36011;53.362;58.948;2024-02-21T10:41:34;98112.06;;;12.69;10.05
49943;BME280;36011;53.362;58.948;2024-02-21T10:44:40;98118.66;;;12.44;10.05
49943;BME280;36011;53.362;58.948;2024-02-21T10:47:49;98113.84;;;11.83;10.38
49943;BME280;36011;53.362;58.948;2024-02-21T10:51:26;98114.63;;;12.20;10.37
49943;BME280;36011;53.362;58.948;2024-02-21T10:54:58;98106.31;;;12.27;10.09
49943;BME280;36011;53.362;58.948;2024-02-21T10:58:02;98103.78;;;12.08;10.31
49943;BME280;36011;53.362;58.948;2024-02-21T11:01:08;98114.19;;;11.94;10.47
49943;BME280;36011;53.362;58.948;2024-02-21T11:04:11;98113.50;;;11.72;10.49
49943;BME280;36011;53.362;58.948;2024-02-21T11:07:18;98114.66;;;10.93;10.83
49943;BME280;36011;53.362;58.948;2024-02-21T11:10:26;98123.06;;;10.23;11.04
49943;BME280;36011;53.362;58.948;2024-02-21T11:13:36;98118.84;;;9.56;11.48
49943;BME280;36011;53.362;58.948;2024-02-21T11:16:42;98114.16;;;8.26;11.96
49943;BME280;36011;53.362;58.948;2024-02-21T11:19:47;98114.53;;;6.82;12.63
49943;BME280;36011;53.362;58.948;2024-02-21T11:22:55;98120.09;;;6.09;13.14
49943;BME280;36011;53.362;58.948;2024-02-21T11:29:10;98107.91;;;6.08;12.93
49943;BME280;36011;53.362;58.948;2024-02-21T11:32:18;98109.41;;;5.82;13.32
49943;BME280;36011;53.362;58.948;2024-02-21T11:35:26;98055.22;;;5.24;13.09
49943;BME280;36011;53.362;58.948;2024-02-21T11:38:34;98118.41;;;5.36;13.42
49943;BME280;36011;53.362;58.948;2024-02-21T11:41:39;98119.41;;;4.53;13.76
49943;BME280;36011;53.362;58.948;2024-02-21T11:44:43;98114.09;;;4.14;14.09
49943;BME280;36011;53.362;58.948;2024-02-21T11:47:47;98106.50;;;4.03;14.12
49943;BME280;36011;53.362;58.948;2024-02-21T11:50:59;98118.25;;;3.79;14.45
49943;BME280;36011;53.362;58.948;2024-02-21T11:54:06;98108.84;;;3.18;14.63
49943;BME280;36011;53.362;58.948;2024-02-21T11:57:11;98107.06;;;2.61;15.01
49943;BME280;36011;53.362;58.948;2024-02-21T12:00:20;98100.78;;;2.08;15.44
49943;BME280;36011;53.362;58.948;2024-02-21T12:03:25;98106.72;;;1.36;16.43
49943;BME280;36011;53.362;58.948;2024-02-21T12:06:32;98101.97;;;0.70;16.09
49943;BME280;36011;53.362;58.948;2024-02-21T12:09:37;98106.56;;;0.13;16.72
49943;BME280;36011;53.362;58.948;2024-02-21T12:12:42;98109.31;;;-0.36;17.08
49943;BME280;36011;53.362;58.948;2024-02-21T12:15:49;98111.91;;;-0.79;17.89
49943;BME280;36011;53.362;58.948;2024-02-21T12:19:13;98111.88;;;-1.22;18.40
49943;BME280;36011;53.362;58.948;2024-02-21T12:22:18;98087.38;;;-2.36;18.39
49943;BME280;36011;53.362;58.948;2024-02-21T12:25:27;98116.13;;;-2.99;19.28
49943;BME280;36011;53.362;58.948;2024-02-21T12:28:31;98114.19;;;-4.00;20.08
49943;BME280;36011;53.362;58.948;2024-02-21T12:31:38;98117.13;;;-4.93;20.73
49943;BME280;36011;53.362;58.948;2024-02-21T12:34:43;98104.56;;;-5.76;21.84
49943;BME280;36011;53.362;58.948;2024-02-21T12:37:47;98118.19;;;-6.62;22.03
49943;BME280;36011;53.362;58.948;2024-02-21T12:40:52;98108.38;;;-7.50;23.06
49943;BME280;36011;53.362;58.948;2024-02-21T12:43:58;98120.94;;;-8.21;23.34
49943;BME280;36011;53.362;58.948;2024-02-21T12:47:04;98115.38;;;-8.93;24.20
49943;BME280;36011;53.362;58.948;2024-02-21T12:50:08;98112.34;;;-9.60;24.65
49943;BME280;36011;53.362;58.948;2024-02-21T12:53:12;98123.97;;;-9.68;24.86
49943;BME280;36011;53.362;58.948;2024-02-21T12:56:17;98124.00;;;-9.66;25.21
49943;BME280;36011;53.362;58.948;2024-02-21T12:59:23;98128.78;;;-9.76;25.15
49943;BME280;36011;53.362;58.948;2024-02-21T13:02:29;98134.63;;;-10.02;25.65
49943;BME280;36011;53.362;58.948;2024-02-21T13:05:35;98133.22;;;-10.65;26.09
49943;BME280;36011;53.362;58.948;2024-02-21T13:08:40;98127.25;;;-11.30;26.53
49943;BME280;36011;53.362;58.948;2024-02-21T13:11:45;98136.38;;;-11.75;27.13
49943;BME280;36011;53.362;58.948;2024-02-21T13:14:49;98131.31;;;-12.15;27.48
49943;BME280;36011;53.362;58.948;2024-02-21T13:17:56;98126.72;;;-12.61;28.02
49943;BME280;36011;53.362;58.948;2024-02-21T13:21:00;98135.16;;;-12.98;28.51
49943;BME280;36011;53.362;58.948;2024-02-21T13:24:04;98144.59;;;-13.31;28.94
49943;BME280;36011;53.362;58.948;2024-02-21T13:27:09;98144.28;;;-13.55;29.23
49943;BME280;36011;53.362;58.948;2024-02-21T13:30:14;98144.00;;;-13.78;29.58
49943;BME280;36011;53.362;58.948;2024-02-21T13:33:23;98147.94;;;-13.99;29.91
49943;BME280;36011;53.362;58.948;2024-02-21T13:36:27;98141.00;;;-14.20;29.92
49943;BME280;36011;53.362;58.948;2024-02-21T13:39:31;98144.38;;;-14.36;30.69
49943;BME280;36011;53.362;58.948;2024-02-21T13:42:38;98140.84;;;-14.56;30.62
49943;BME280;36011;53.362;58.948;2024-02-21T13:45:57;98138.13;;;-14.75;31.82
49943;BME280;36011;53.362;58.948;2024-02-21T13:49:05;98131.84;;;-14.98;31.33
49943;BME280;36011;53.362;58.948;2024-02-21T13:52:11;98141.50;;;-15.06;30.87
49943;BME280;36011;53.362;58.948;2024-02-21T13:55:16;98153.41;;;-15.20;31.15
49943;BME280;36011;53.362;58.948;2024-02-21T13:58:20;98141.41;;;-15.39;31.54
49943;BME280;36011;53.362;58.948;2024-02-21T14:01:25;98152.53;;;-15.50;31.43
49943;BME280;36011;53.362;58.948;2024-02-21T14:04:30;98150.78;;;-15.66;31.58
49943;BME280;36011;53.362;58.948;2024-02-21T14:07:35;98155.84;;;-15.80;31.85
49943;BME280;36011;53.362;58.948;2024-02-21T14:10:43;98149.75;;;-15.99;31.95
49943;BME280;36011;53.362;58.948;2024-02-21T14:13:47;98150.78;;;-16.10;32.12
49943;BME280;36011;53.362;58.948;2024-02-21T14:16:52;98161.19;;;-16.19;32.37
49943;BME280;36011;53.362;58.948;2024-02-21T14:19:56;98160.72;;;-16.26;32.44
49943;BME280;36011;53.362;58.948;2024-02-21T14:23:00;98159.41;;;-16.35;32.56
49943;BME280;36011;53.362;58.948;2024-02-21T14:26:04;98152.75;;;-16.47;32.78
49943;BME280;36011;53.362;58.948;2024-02-21T14:29:09;98152.38;;;-16.54;32.90
49943;BME280;36011;53.362;58.948;2024-02-21T14:32:14;98149.19;;;-16.64;32.56
49943;BME280;36011;53.362;58.948;2024-02-21T14:35:17;98149.44;;;-16.75;32.89
49943;BME280;36011;53.362;58.948;2024-02-21T14:38:22;98141.66;;;-16.92;33.12
49943;BME280;36011;53.362;58.948;2024-02-21T14:41:28;98151.50;;;-16.95;33.07
49943;BME280;36011;53.362;58.948;2024-02-21T14:44:33;98153.38;;;-17.06;33.36
49943;BME280;36011;53.362;58.948;2024-02-21T14:47:39;98148.72;;;-17.13;33.18
49943;BME280;36011;53.362;58.948;2024-02-21T14:50:41;98140.22;;;-17.29;33.43
49943;BME280;36011;53.362;58.948;2024-02-21T14:53:49;98125.91;;;-17.43;33.66
49943;BME280;36011;53.362;58.948;2024-02-21T14:56:55;98151.81;;;-17.44;33.58
49943;BME280;36011;53.362;58.948;2024-02-21T15:00:02;98142.84;;;-17.54;33.53
49943;BME280;36011;53.362;58.948;2024-02-21T15:03:12;98145.81;;;-17.59;34.05
49943;BME280;36011;53.362;58.948;2024-02-21T15:06:22;98138.84;;;-17.63;34.35
49943;BME280;36011;53.362;58.948;2024-02-21T15:09:25;98135.56;;;-17.62;34.17
49943;BME280;36011;53.362;58.948;2024-02-21T15:12:30;98140.88;;;-17.58;35.20
49943;BME280;36011;53.362;58.948;2024-02-21T15:15:36;98138.28;;;-17.59;34.48
49943;BME280;36011;53.362;58.948;2024-02-21T15:18:41;98130.72;;;-17.73;36.27
49943;BME280;36011;53.362;58.948;2024-02-21T15:21:45;98134.59;;;-17.78;35.50
49943;BME280;36011;53.362;58.948;2024-02-21T15:24:50;98139.81;;;-17.88;34.61
49943;BME280;36011;53.362;58.948;2024-02-21T15:27:55;98132.63;;;-17.95;35.11
49943;BME280;36011;53.362;58.948;2024-02-21T15:30:59;98149.81;;;-18.01;34.95
49943;BME280;36011;53.362;58.948;2024-02-21T15:34:03;98138.19;;;-18.13;35.11
49943;BME280;36011;53.362;58.948;2024-02-21T15:37:08;98140.72;;;-18.13;35.75
49943;BME280;36011;53.362;58.948;2024-02-21T15:40:14;98129.28;;;-18.21;35.31
49943;BME280;36011;53.362;58.948;2024-02-21T15:43:18;98143.38;;;-18.23;35.71
49943;BME280;36011;53.362;58.948;2024-02-21T15:46:25;98134.47;;;-18.31;35.34
49943;BME280;36011;53.362;58.948;2024-02-21T15:49:30;98144.22;;;-18.36;35.21
49943;BME280;36011;53.362;58.948;2024-02-21T15:52:34;98138.25;;;-18.49;35.22
49943;BME280;36011;53.362;58.948;2024-02-21T15:55:40;98140.81;;;-18.61;35.56
49943;BME280;36011;53.362;58.948;2024-02-21T15:58:45;98145.88;;;-18.73;35.75
49943;BME280;36011;53.362;58.948;2024-02-21T16:01:48;98139.16;;;-18.86;35.20
49943;BME280;36011;53.362;58.948;2024-02-21T16:04:51;98129.56;;;-18.91;35.18
49943;BME280;36011;53.362;58.948;2024-02-21T16:07:57;98145.09;;;-19.09;34.97
49943;BME280;36011;53.362;58.948;2024-02-21T16:11:01;98148.41;;;-19.21;34.93